SULAYMANIYAH INTERNATIONAL AIRPORT
  • SulyAir
  • SulyAir
1 1
Arrival

ArrivalsMore >>

Departure

DeparturesMore >>

TAF

TAF ORSU 272300Z 2800/2824 VRB04KT CAVOK
BECMG 2810/2812 24010KT 9999 FEW045 SCT080
BECMG 2816/2818 31006KT CAVOK=

METARs

METAR ORSU 280300Z 31004KT 9000 NSC 17/07 Q1017=